createdAt,value
2022-07-29T00:01:03.395Z,22.30
2022-07-29T00:03:30.464Z,22.30
2022-07-29T00:05:57.536Z,22.20
2022-07-29T00:08:24.583Z,22.20
2022-07-29T00:10:52.360Z,22.20
2022-07-29T00:13:32.393Z,22.20
2022-07-29T00:16:04.812Z,22.10
2022-07-29T00:18:33.102Z,22.10
2022-07-29T00:21:00.667Z,22.00
2022-07-29T00:23:27.896Z,22.00
2022-07-29T00:25:54.975Z,21.90
2022-07-29T00:28:22.019Z,21.90
2022-07-29T00:30:49.078Z,21.90
2022-07-29T00:33:16.087Z,21.90
2022-07-29T00:35:45.794Z,21.90
2022-07-29T00:38:18.014Z,21.80
2022-07-29T00:40:46.090Z,21.80
2022-07-29T00:43:14.843Z,21.70
2022-07-29T00:45:45.015Z,21.70
2022-07-29T00:48:12.077Z,21.70
2022-07-29T00:50:40.404Z,21.60
2022-07-29T00:53:09.367Z,21.60
2022-07-29T00:55:36.685Z,21.50
2022-07-29T00:58:03.967Z,21.50
2022-07-29T01:00:31.753Z,21.50
2022-07-29T01:02:59.343Z,21.50
2022-07-29T01:05:51.077Z,21.40
2022-07-29T01:08:17.244Z,21.30
2022-07-29T01:10:47.723Z,21.30
2022-07-29T01:13:17.536Z,21.30
2022-07-29T01:15:53.995Z,21.20
2022-07-29T01:18:37.368Z,21.20
2022-07-29T01:21:42.380Z,21.20
2022-07-29T01:24:17.237Z,21.20
2022-07-29T01:27:15.739Z,21.10
2022-07-29T01:29:58.236Z,21.10
2022-07-29T01:32:29.579Z,21.00
2022-07-29T01:35:10.673Z,21.00
2022-07-29T01:37:56.371Z,20.90
2022-07-29T01:40:44.606Z,20.90
2022-07-29T01:43:15.573Z,20.80
2022-07-29T01:45:58.985Z,20.80
2022-07-29T01:48:40.428Z,20.70
2022-07-29T01:51:13.646Z,20.70
2022-07-29T01:53:57.691Z,20.70
2022-07-29T01:56:25.504Z,20.70
2022-07-29T01:58:55.149Z,20.60
2022-07-29T02:01:25.215Z,20.60
2022-07-29T02:03:56.227Z,20.60
2022-07-29T02:06:24.580Z,20.60
2022-07-29T02:08:54.102Z,20.60
2022-07-29T02:11:21.239Z,20.60
2022-07-29T02:13:50.770Z,20.60
2022-07-29T02:16:20.535Z,20.50
2022-07-29T02:18:51.648Z,20.50
2022-07-29T02:21:25.118Z,20.40
2022-07-29T02:23:54.293Z,20.50
2022-07-29T02:26:23.418Z,20.40
2022-07-29T02:28:53.582Z,20.40
2022-07-29T02:31:25.424Z,20.40
2022-07-29T02:33:54.824Z,20.40
2022-07-29T02:36:25.045Z,20.40
2022-07-29T02:38:52.775Z,20.40
2022-07-29T02:41:40.005Z,20.40
2022-07-29T02:44:12.809Z,20.40
2022-07-29T02:46:52.977Z,20.30
2022-07-29T02:49:35.508Z,20.30
2022-07-29T02:52:21.034Z,20.30
2022-07-29T02:54:56.148Z,20.20
2022-07-29T02:57:29.320Z,20.20
2022-07-29T03:00:00.107Z,20.10
2022-07-29T03:02:29.616Z,20.10
2022-07-29T03:05:01.092Z,20.10
2022-07-29T03:07:28.995Z,20.00
2022-07-29T03:09:57.161Z,20.00
2022-07-29T03:12:25.108Z,20.00
2022-07-29T03:14:53.391Z,20.00
2022-07-29T03:17:22.587Z,20.00
2022-07-29T03:19:50.456Z,20.00
2022-07-29T03:22:19.141Z,20.00
2022-07-29T03:24:46.698Z,19.90
2022-07-29T03:27:14.492Z,19.90
2022-07-29T03:29:41.530Z,19.80
2022-07-29T03:32:17.393Z,19.80
2022-07-29T03:34:51.055Z,19.80
2022-07-29T03:37:18.022Z,19.80
2022-07-29T03:39:47.156Z,19.80
2022-07-29T03:42:17.414Z,19.80
2022-07-29T03:44:48.669Z,19.80
2022-07-29T03:47:18.757Z,19.70
2022-07-29T03:49:51.693Z,19.70
2022-07-29T03:52:19.038Z,19.70
2022-07-29T03:54:46.164Z,19.60
2022-07-29T03:57:14.318Z,19.60
2022-07-29T03:59:42.143Z,19.50
2022-07-29T04:02:12.052Z,19.40
2022-07-29T04:04:39.599Z,19.40
2022-07-29T04:07:06.773Z,19.30
2022-07-29T04:09:33.809Z,19.30
2022-07-29T04:12:02.977Z,19.20
2022-07-29T04:14:35.536Z,19.30
2022-07-29T04:17:04.503Z,19.30
2022-07-29T04:19:32.385Z,19.30
2022-07-29T04:22:00.704Z,19.40
2022-07-29T04:24:28.643Z,19.40
2022-07-29T04:26:55.789Z,19.40
2022-07-29T04:29:22.829Z,19.40
2022-07-29T04:31:49.840Z,19.40
2022-07-29T04:34:17.210Z,19.50
2022-07-29T04:36:44.458Z,19.50
2022-07-29T04:39:11.508Z,19.50
2022-07-29T04:41:38.527Z,19.50
2022-07-29T04:44:07.089Z,19.60
2022-07-29T04:46:35.129Z,19.60
2022-07-29T04:49:03.144Z,19.60
2022-07-29T04:51:30.176Z,19.60
2022-07-29T04:53:57.299Z,19.60
2022-07-29T04:56:25.113Z,19.70
2022-07-29T04:58:52.154Z,19.70
2022-07-29T05:01:19.441Z,19.70
2022-07-29T05:03:46.774Z,19.70
2022-07-29T05:06:13.796Z,19.70
2022-07-29T05:08:42.027Z,19.70
2022-07-29T05:11:12.105Z,19.80
2022-07-29T05:13:46.082Z,20.50
2022-07-29T05:16:15.238Z,23.90
2022-07-29T05:18:43.485Z,26.20
2022-07-29T05:21:10.481Z,27.90
2022-07-29T05:23:37.547Z,29.30
2022-07-29T05:26:04.548Z,30.00
2022-07-29T05:28:36.174Z,29.00
2022-07-29T05:31:03.375Z,26.90
2022-07-29T05:33:35.671Z,25.40
2022-07-29T05:36:08.295Z,24.30
2022-07-29T05:38:36.686Z,23.40
2022-07-29T05:41:04.608Z,22.80
2022-07-29T05:43:31.797Z,22.30
2022-07-29T05:45:59.446Z,22.10
2022-07-29T05:48:26.853Z,22.00
2022-07-29T05:50:53.915Z,21.90
2022-07-29T05:53:21.454Z,21.80
2022-07-29T05:55:49.493Z,21.80
2022-07-29T05:58:16.486Z,21.80
2022-07-29T06:00:44.028Z,21.90
2022-07-29T06:03:10.969Z,22.00
2022-07-29T06:05:38.187Z,22.00
2022-07-29T06:08:08.671Z,22.10
2022-07-29T06:10:39.935Z,22.20
2022-07-29T06:13:06.904Z,22.20
2022-07-29T06:15:34.710Z,22.30
2022-07-29T06:18:02.488Z,22.30
2022-07-29T06:20:31.517Z,22.50
2022-07-29T06:22:59.203Z,22.60
2022-07-29T06:25:26.420Z,22.80
2022-07-29T06:27:53.659Z,23.00
2022-07-29T06:30:20.835Z,23.20
2022-07-29T06:32:48.325Z,23.30
2022-07-29T06:35:42.161Z,23.40
2022-07-29T06:38:07.312Z,23.60
2022-07-29T06:41:02.272Z,23.60
2022-07-29T06:43:33.216Z,23.60
2022-07-29T06:46:02.564Z,23.70
2022-07-29T06:48:30.666Z,23.70
2022-07-29T06:50:57.846Z,23.60
2022-07-29T06:53:25.121Z,23.60
2022-07-29T06:55:52.178Z,23.70
2022-07-29T06:58:21.459Z,23.60
2022-07-29T07:00:49.293Z,23.50
2022-07-29T07:03:18.090Z,23.40
2022-07-29T07:05:45.987Z,23.30
2022-07-29T07:08:14.138Z,23.30
2022-07-29T07:10:41.243Z,23.30
2022-07-29T07:13:08.401Z,23.30
2022-07-29T07:15:39.919Z,23.30
2022-07-29T07:18:07.999Z,23.20
2022-07-29T07:20:35.702Z,23.10
2022-07-29T07:23:02.883Z,23.00
2022-07-29T07:25:29.888Z,22.90
2022-07-29T07:27:56.858Z,22.80
2022-07-29T07:30:23.905Z,22.70
2022-07-29T07:32:50.880Z,22.70
2022-07-29T07:35:18.113Z,22.70
2022-07-29T07:37:45.165Z,22.70
2022-07-29T07:40:14.161Z,22.80
2022-07-29T07:42:46.645Z,22.80
2022-07-29T07:45:16.241Z,22.90
2022-07-29T07:47:44.659Z,23.00
2022-07-29T07:50:18.713Z,23.10
2022-07-29T07:52:51.901Z,23.20
2022-07-29T07:55:19.904Z,23.20
2022-07-29T07:57:47.019Z,23.30
2022-07-29T08:00:15.369Z,23.40
2022-07-29T08:02:44.160Z,23.60
2022-07-29T08:05:13.007Z,23.70
2022-07-29T08:07:40.867Z,23.80
2022-07-29T08:10:08.728Z,23.90
2022-07-29T08:12:35.822Z,24.00
2022-07-29T08:15:03.036Z,24.10
2022-07-29T08:17:30.202Z,24.30
2022-07-29T08:20:02.499Z,24.50
2022-07-29T08:22:30.102Z,24.60
2022-07-29T08:24:57.274Z,24.70
2022-07-29T08:30:12.420Z,24.90
2022-07-29T08:32:55.674Z,25.00
2022-07-29T08:35:24.688Z,25.30
2022-07-29T08:37:52.696Z,25.50
2022-07-29T08:40:32.258Z,25.60
2022-07-29T08:43:04.982Z,25.70
2022-07-29T08:45:48.490Z,25.80
2022-07-29T08:48:19.899Z,25.90
2022-07-29T08:50:48.338Z,25.80
2022-07-29T08:53:17.872Z,25.90
2022-07-29T08:55:50.602Z,25.80
2022-07-29T08:58:20.414Z,25.60
2022-07-29T09:00:56.179Z,25.50
2022-07-29T09:03:28.689Z,25.50
2022-07-29T09:05:56.044Z,25.40
2022-07-29T09:08:24.235Z,25.30
2022-07-29T09:10:52.413Z,25.30
2022-07-29T09:13:19.419Z,25.20
2022-07-29T09:15:46.521Z,25.20
2022-07-29T09:18:20.390Z,25.10
2022-07-29T09:21:16.384Z,25.00
2022-07-29T09:24:08.214Z,24.90
2022-07-29T09:26:45.039Z,24.90
2022-07-29T09:29:13.998Z,24.90
2022-07-29T09:31:47.035Z,24.90
2022-07-29T09:34:17.304Z,24.90
2022-07-29T09:36:50.120Z,24.90
2022-07-29T09:39:30.901Z,24.90
2022-07-29T09:42:01.100Z,24.90
2022-07-29T09:44:28.386Z,24.90
2022-07-29T09:47:07.225Z,24.90
2022-07-29T09:49:55.412Z,24.90
2022-07-29T09:52:22.839Z,24.90
2022-07-29T09:54:49.959Z,24.80
2022-07-29T09:57:30.171Z,24.80
2022-07-29T10:00:13.372Z,24.80
2022-07-29T10:02:42.658Z,24.70
2022-07-29T10:05:25.025Z,24.60
2022-07-29T10:07:57.907Z,24.60
2022-07-29T10:10:24.988Z,24.60
2022-07-29T10:13:06.949Z,24.60
2022-07-29T10:15:40.118Z,24.60
2022-07-29T10:18:08.473Z,24.60
2022-07-29T10:20:36.547Z,24.70
2022-07-29T10:23:03.695Z,24.70
2022-07-29T10:25:32.816Z,24.70
2022-07-29T10:27:59.982Z,24.70
2022-07-29T10:30:28.183Z,24.70
2022-07-29T10:32:55.077Z,24.70
2022-07-29T10:35:46.410Z,24.70
2022-07-29T10:39:03.468Z,24.70
2022-07-29T10:41:51.724Z,24.80
2022-07-29T10:44:24.877Z,24.80
2022-07-29T10:46:53.244Z,24.90
2022-07-29T10:49:25.265Z,25.00
2022-07-29T10:52:07.082Z,25.00
2022-07-29T10:54:37.186Z,25.00
2022-07-29T10:57:13.842Z,25.10
2022-07-29T10:59:43.133Z,25.20
2022-07-29T11:02:41.279Z,25.20
2022-07-29T11:05:11.054Z,25.40
2022-07-29T11:07:45.873Z,25.60
2022-07-29T11:10:13.893Z,25.80
2022-07-29T11:12:43.873Z,26.10
2022-07-29T11:15:18.476Z,26.20
2022-07-29T11:17:59.706Z,26.60
2022-07-29T11:20:47.820Z,26.90
2022-07-29T11:23:21.999Z,27.00
2022-07-29T11:26:12.830Z,27.10
2022-07-29T11:28:55.538Z,27.10
2022-07-29T11:31:44.404Z,27.10
2022-07-29T11:34:23.594Z,27.20
2022-07-29T11:37:10.401Z,27.10
2022-07-29T11:39:39.055Z,27.20
2022-07-29T11:42:35.542Z,27.20
2022-07-29T11:45:43.862Z,27.40
2022-07-29T11:48:27.567Z,27.50
2022-07-29T11:50:48.256Z,27.60
2022-07-29T11:53:16.235Z,27.70
2022-07-29T11:55:51.626Z,27.80
2022-07-29T11:58:25.082Z,28.00
2022-07-29T12:00:55.629Z,28.10
2022-07-29T12:03:34.921Z,28.50
2022-07-29T12:06:03.622Z,28.80
2022-07-29T12:08:31.370Z,28.80
2022-07-29T12:10:58.408Z,29.00
2022-07-29T12:13:37.005Z,29.20
2022-07-29T12:16:04.618Z,29.20
2022-07-29T12:18:33.515Z,29.40
2022-07-29T12:21:05.401Z,29.50
2022-07-29T12:23:35.134Z,29.70
2022-07-29T12:26:07.253Z,29.60
2022-07-29T12:28:40.629Z,29.70
2022-07-29T12:31:14.048Z,29.80
2022-07-29T12:33:41.302Z,29.80
2022-07-29T12:36:15.612Z,29.50
2022-07-29T12:38:45.531Z,29.40
2022-07-29T12:41:12.847Z,29.30
2022-07-29T12:43:55.605Z,29.30
2022-07-29T12:46:23.112Z,29.30
2022-07-29T12:48:55.898Z,29.20
2022-07-29T12:51:40.650Z,29.20
2022-07-29T12:54:14.077Z,29.10
2022-07-29T12:56:44.321Z,29.00
2022-07-29T12:59:20.703Z,28.90
2022-07-29T13:01:50.816Z,28.70
2022-07-29T13:04:33.324Z,28.60
2022-07-29T13:07:09.162Z,28.50
2022-07-29T13:09:43.727Z,28.50
2022-07-29T13:12:13.200Z,28.50
2022-07-29T13:14:42.251Z,28.40
2022-07-29T13:17:32.772Z,28.30
2022-07-29T13:20:13.678Z,28.10
2022-07-29T13:22:41.615Z,28.10
2022-07-29T13:25:09.453Z,27.90
2022-07-29T13:27:39.329Z,27.70
2022-07-29T13:30:09.505Z,27.50
2022-07-29T13:32:37.680Z,27.30
2022-07-29T13:35:07.870Z,27.10
2022-07-29T13:37:39.174Z,27.00
2022-07-29T13:40:08.462Z,26.80
2022-07-29T13:42:35.507Z,26.70
2022-07-29T13:45:03.177Z,26.70
2022-07-29T13:47:32.800Z,26.60
2022-07-29T13:50:10.900Z,26.60
2022-07-29T13:52:39.319Z,26.60
2022-07-29T13:55:07.071Z,26.50
2022-07-29T13:57:34.162Z,26.40
2022-07-29T14:00:01.218Z,26.30
2022-07-29T14:02:28.268Z,26.20
2022-07-29T14:04:55.965Z,26.10
2022-07-29T14:07:24.203Z,25.90
2022-07-29T14:09:52.008Z,25.80
2022-07-29T14:12:19.128Z,25.70
2022-07-29T14:14:47.281Z,25.50
2022-07-29T14:17:15.038Z,25.40
2022-07-29T14:19:42.781Z,25.20
2022-07-29T14:22:10.780Z,25.10
2022-07-29T14:24:38.573Z,25.00
2022-07-29T14:27:07.643Z,24.90
2022-07-29T14:29:37.440Z,24.90
2022-07-29T14:32:11.301Z,24.80
2022-07-29T14:34:39.296Z,24.70
2022-07-29T14:37:07.670Z,24.70
2022-07-29T14:39:42.914Z,24.70
2022-07-29T14:42:12.714Z,24.60
2022-07-29T14:44:42.548Z,24.60
2022-07-29T14:47:10.158Z,24.60
2022-07-29T14:49:37.164Z,24.50
2022-07-29T14:52:04.507Z,24.50
2022-07-29T14:54:31.441Z,24.60
2022-07-29T14:56:58.867Z,24.60
2022-07-29T14:59:27.579Z,24.70
2022-07-29T15:01:55.113Z,24.80
2022-07-29T15:04:22.289Z,24.80
2022-07-29T15:06:49.427Z,24.80
2022-07-29T15:09:16.480Z,24.70
2022-07-29T15:11:43.510Z,24.80
2022-07-29T15:14:10.585Z,24.80
2022-07-29T15:16:39.274Z,24.90
2022-07-29T15:19:10.451Z,25.00
2022-07-29T15:21:41.631Z,25.00
2022-07-29T15:24:19.182Z,25.10
2022-07-29T15:26:47.461Z,25.20
2022-07-29T15:29:14.717Z,25.20
2022-07-29T15:31:41.917Z,25.30
2022-07-29T15:34:09.133Z,25.30
2022-07-29T15:36:51.413Z,25.20
2022-07-29T15:39:20.718Z,25.00
2022-07-29T15:41:48.409Z,25.10
2022-07-29T15:44:15.442Z,25.20
2022-07-29T15:47:01.543Z,25.30
2022-07-29T15:49:48.148Z,25.30
2022-07-29T15:52:25.198Z,25.30
2022-07-29T15:54:52.684Z,25.20
2022-07-29T15:57:19.706Z,25.10
2022-07-29T15:59:46.651Z,25.00
2022-07-29T16:02:13.663Z,25.00
2022-07-29T16:04:40.690Z,25.00
2022-07-29T16:07:07.758Z,25.10
2022-07-29T16:09:34.931Z,25.40
2022-07-29T16:12:02.146Z,25.60
2022-07-29T16:14:32.233Z,25.90
2022-07-29T16:17:02.070Z,26.20
2022-07-29T16:19:30.607Z,26.40
2022-07-29T16:21:59.863Z,26.60
2022-07-29T16:24:29.889Z,26.70
2022-07-29T16:26:57.709Z,26.80
2022-07-29T16:29:24.925Z,26.80
2022-07-29T16:31:53.181Z,26.90
2022-07-29T16:34:20.341Z,26.90
2022-07-29T16:36:47.947Z,26.80
2022-07-29T16:39:15.223Z,26.80
2022-07-29T16:41:42.405Z,26.70
2022-07-29T16:44:09.385Z,26.70
2022-07-29T16:46:37.820Z,26.70
2022-07-29T16:49:06.292Z,26.70
2022-07-29T16:51:33.272Z,26.70
2022-07-29T16:54:00.219Z,26.70
2022-07-29T16:56:27.154Z,26.70
2022-07-29T16:58:54.124Z,26.60
2022-07-29T17:01:21.142Z,26.50
2022-07-29T17:04:06.490Z,26.40
2022-07-29T17:06:38.793Z,26.30
2022-07-29T17:09:07.947Z,26.30
2022-07-29T17:11:53.305Z,26.30
2022-07-29T17:14:27.394Z,26.30
2022-07-29T17:17:00.984Z,26.30
2022-07-29T17:19:31.757Z,26.30
2022-07-29T17:22:08.970Z,26.10
2022-07-29T17:24:39.040Z,26.00
2022-07-29T17:27:08.363Z,25.90
2022-07-29T17:29:35.456Z,25.90
2022-07-29T17:32:02.579Z,25.90
2022-07-29T17:34:29.734Z,25.90
2022-07-29T17:36:57.193Z,25.90
2022-07-29T17:39:24.467Z,26.10
2022-07-29T17:41:51.467Z,26.30
2022-07-29T17:44:18.450Z,26.40
2022-07-29T17:46:45.500Z,26.60
2022-07-29T17:49:12.595Z,26.80
2022-07-29T17:51:39.758Z,27.00
2022-07-29T17:54:06.638Z,27.20
2022-07-29T17:56:34.139Z,27.20
2022-07-29T17:59:06.517Z,27.10
2022-07-29T18:01:34.580Z,26.80
2022-07-29T18:04:03.119Z,26.50
2022-07-29T18:06:30.159Z,26.30
2022-07-29T18:08:57.219Z,26.10
2022-07-29T18:11:24.290Z,25.90
2022-07-29T18:13:51.309Z,25.80
2022-07-29T18:16:18.708Z,25.60
2022-07-29T18:18:45.994Z,25.50
2022-07-29T18:21:13.163Z,25.30
2022-07-29T18:23:40.346Z,25.20
2022-07-29T18:26:07.378Z,25.10
2022-07-29T18:28:34.455Z,25.00
2022-07-29T18:31:02.713Z,24.80
2022-07-29T18:33:30.504Z,24.70
2022-07-29T18:36:11.485Z,24.60
2022-07-29T18:38:41.547Z,24.50
2022-07-29T18:41:08.622Z,24.40
2022-07-29T18:43:35.942Z,24.20
2022-07-29T18:46:03.107Z,24.00
2022-07-29T18:48:31.704Z,23.90
2022-07-29T18:50:58.742Z,23.90
2022-07-29T18:53:25.788Z,23.80
2022-07-29T18:55:55.356Z,23.80
2022-07-29T18:58:24.328Z,23.70
2022-07-29T19:00:51.360Z,23.60
2022-07-29T19:03:18.359Z,23.60
2022-07-29T19:05:45.375Z,23.50
2022-07-29T19:08:12.442Z,23.50
2022-07-29T19:10:39.488Z,23.40
2022-07-29T19:13:06.921Z,23.40
2022-07-29T19:15:33.896Z,23.30
2022-07-29T19:18:01.422Z,23.30
2022-07-29T19:20:29.675Z,23.20
2022-07-29T19:22:56.987Z,23.10
2022-07-29T19:25:24.289Z,23.10
2022-07-29T19:27:51.353Z,23.00
2022-07-29T19:30:18.778Z,23.00
2022-07-29T19:32:45.740Z,22.90
2022-07-29T19:35:24.847Z,22.90
2022-07-29T19:37:53.380Z,22.90
2022-07-29T19:40:21.149Z,22.80
2022-07-29T19:42:50.018Z,22.80
2022-07-29T19:45:17.174Z,22.70
2022-07-29T19:47:44.433Z,22.70
2022-07-29T19:50:11.541Z,22.60
2022-07-29T19:52:38.930Z,22.50
2022-07-29T19:55:07.900Z,22.50
2022-07-29T19:57:40.566Z,22.40
2022-07-29T20:00:10.109Z,22.30
2022-07-29T20:02:40.376Z,22.30
2022-07-29T20:05:08.513Z,22.30
2022-07-29T20:07:36.335Z,22.30
2022-07-29T20:10:05.350Z,22.30
2022-07-29T20:12:33.002Z,22.20
2022-07-29T20:15:00.004Z,22.20
2022-07-29T20:17:28.557Z,22.10
2022-07-29T20:19:57.337Z,22.10
2022-07-29T20:22:24.374Z,22.10
2022-07-29T20:24:51.410Z,22.00
2022-07-29T20:27:19.267Z,22.00
2022-07-29T20:29:46.292Z,21.90
2022-07-29T20:32:13.305Z,21.90
2022-07-29T20:34:43.680Z,21.80
2022-07-29T20:37:13.516Z,21.80
2022-07-29T20:39:42.785Z,21.80
2022-07-29T20:42:09.881Z,21.70
2022-07-29T20:44:37.050Z,21.70
2022-07-29T20:47:04.242Z,21.70
2022-07-29T20:49:31.237Z,21.70
2022-07-29T20:51:58.854Z,21.70
2022-07-29T20:54:25.837Z,21.70
2022-07-29T20:56:53.352Z,21.60
2022-07-29T20:59:20.381Z,21.50
2022-07-29T21:01:47.552Z,21.50
2022-07-29T21:04:14.759Z,21.50
2022-07-29T21:06:41.776Z,21.40
2022-07-29T21:09:08.743Z,21.30
2022-07-29T21:11:44.023Z,21.30
2022-07-29T21:14:30.901Z,21.30
2022-07-29T21:16:58.721Z,21.20
2022-07-29T21:19:26.643Z,21.10
2022-07-29T21:21:53.684Z,21.10
2022-07-29T21:24:20.691Z,21.10
2022-07-29T21:27:04.936Z,21.00
2022-07-29T21:29:34.633Z,21.00
2022-07-29T21:32:01.678Z,20.80
2022-07-29T21:34:28.680Z,20.80
2022-07-29T21:36:55.654Z,20.80
2022-07-29T21:39:22.745Z,20.80
2022-07-29T21:41:49.778Z,20.80
2022-07-29T21:44:16.864Z,20.80
2022-07-29T21:46:43.943Z,20.70
2022-07-29T21:49:11.038Z,20.80
2022-07-29T21:51:38.121Z,20.80
2022-07-29T21:54:05.406Z,20.70
2022-07-29T21:56:33.545Z,20.70
2022-07-29T21:59:00.860Z,20.70
2022-07-29T22:01:27.966Z,20.70
2022-07-29T22:03:56.018Z,20.70
2022-07-29T22:06:23.003Z,20.70
2022-07-29T22:08:50.017Z,20.70
2022-07-29T22:11:17.008Z,20.70
2022-07-29T22:13:47.196Z,20.60
2022-07-29T22:16:15.180Z,20.60
2022-07-29T22:18:45.400Z,20.60
2022-07-29T22:21:15.045Z,20.50
2022-07-29T22:23:42.587Z,20.60
2022-07-29T22:26:09.569Z,20.60
2022-07-29T22:28:36.616Z,20.50
2022-07-29T22:31:03.799Z,20.50
2022-07-29T22:33:30.871Z,20.40
2022-07-29T22:35:57.859Z,20.40
2022-07-29T22:38:24.850Z,20.40
2022-07-29T22:40:52.881Z,20.40
2022-07-29T22:43:20.068Z,20.30
2022-07-29T22:45:47.309Z,20.30
2022-07-29T22:48:14.385Z,20.30
2022-07-29T22:50:41.912Z,20.30
2022-07-29T22:53:08.946Z,20.30
2022-07-29T22:55:36.146Z,20.20
2022-07-29T22:58:03.198Z,20.20
2022-07-29T23:00:30.278Z,20.10
2022-07-29T23:02:57.264Z,20.00
2022-07-29T23:05:24.314Z,20.00
2022-07-29T23:07:51.307Z,20.00
2022-07-29T23:10:18.317Z,20.00
2022-07-29T23:12:45.363Z,20.00
2022-07-29T23:15:13.226Z,20.00
2022-07-29T23:17:40.292Z,20.00
2022-07-29T23:20:09.034Z,20.00
2022-07-29T23:22:37.525Z,20.00
2022-07-29T23:25:05.315Z,20.00
2022-07-29T23:27:32.526Z,20.00
2022-07-29T23:29:59.520Z,20.00
2022-07-29T23:32:26.508Z,20.00
2022-07-29T23:34:53.588Z,20.00
2022-07-29T23:37:20.638Z,20.00
2022-07-29T23:39:47.619Z,20.00
2022-07-29T23:42:14.636Z,20.00
2022-07-29T23:44:41.671Z,20.00
2022-07-29T23:47:09.066Z,19.90
2022-07-29T23:49:36.056Z,20.00
2022-07-29T23:52:03.568Z,20.00
2022-07-29T23:54:30.585Z,20.00
2022-07-29T23:56:58.176Z,20.00
2022-07-29T23:59:25.501Z,20.00
